Airfield :
LOGIN :

Register | Disclaimer

   EN    FR    IT 

 










Legend :    VFR   Marginal VFR   IFR   Intensive IFR   Very Intensive IFR
Visi :
Ceiling :
>= 8 km
>= 3000ft
5 to 8 km
1000 to 3000 ft
1500m to 5 km
500 to 1000 ft
800 to 1500m
200 to 500 ft
< 800m
< 200 ft
Symbols :   Thunderstorms  Fog  Heavy snow  Heavy precipitations  Wind > 20 kt
SIGMETs :     Misc.  Thunderstorms  Icing  Turbulence  Mountain Waves  Volcanic Ashes






- Airport Elevation : 42 ft
- IATA code : KGD


UMKK - Khrabrava - Kaliningrad

CURRENT METAR :
  • 091430Z 30007MPS 9999 BKN034 09/05 Q1018 R24/CLRD95 NOSIG RMK QFE762/1017

EXPIRED METARs :
  • 091400Z 30008MPS 9999 BKN043 09/05 Q1018 R24/95D NOSIG RMK QFE762/1016
  • 091330Z 31008MPS CAVOK 10/05 Q1018 R24/CLRD95 NOSIG RMK QFE762/1016
  • 091300Z 30009MPS CAVOK 10/05 Q1017 R24/CLRD95 NOSIG RMK QFE762/1016
  • 091230Z 29009MPS CAVOK 10/05 Q1017 R24/95D NOSIG RMK QFE762/1016
  • 091200Z 29009MPS CAVOK 10/05 Q1017 R24/CLRD95 NOSIG RMK QFE762/1016
  • 091130Z 29009MPS CAVOK 11/05 Q1017 R24/95D NOSIG RMK QFE761/1015

TAF TAF UMKK
Valid from the 09 at 12:00 until the 10 at 12:00 UTC


091057Z 0912/1012 28007G12MPS 9999 BKN020
TEMPO 0912/0918 32009G14MPS SCT011
FM091800 27003G08MPS 5000 BR SCT011
TEMPO 0920/1006 2100 BR MIFG FEW003
BECMG 1008/1010 31005G10MPS 9999 NSW



MET'MAP, your aeronautical weather chart ! - Copyright ORBIFLY December 2007 - Disclaimer

ORBIFLY MET'MAP TEAM :

Programming & Development : Alexandra Zaïnal
Concept & original design : Baudouin d'Aumeries
Assistance for programming : Marc-Olivier Méhu
Technical & hardware support : Manuel Goepfert

Contact : metmap@orbifly.com




SOURCES & CREDITS :

   NOAA